sensor_id;sensor_type;location;lat;lon;timestamp;temperature;humidity
57434;DHT22;43277;52.672;6.984;2023-02-03T00:00:02;9.30;99.90
57434;DHT22;43277;52.672;6.984;2023-02-03T00:02:28;9.20;99.90
57434;DHT22;43277;52.672;6.984;2023-02-03T00:04:54;9.10;99.90
57434;DHT22;43277;52.672;6.984;2023-02-03T00:07:19;9.00;99.90
57434;DHT22;43277;52.672;6.984;2023-02-03T00:09:45;9.10;99.90
57434;DHT22;43277;52.672;6.984;2023-02-03T00:12:10;9.10;99.90
57434;DHT22;43277;52.672;6.984;2023-02-03T00:14:36;9.10;99.90
57434;DHT22;43277;52.672;6.984;2023-02-03T00:17:02;9.10;99.90
57434;DHT22;43277;52.672;6.984;2023-02-03T00:19:28;9.10;99.90
57434;DHT22;43277;52.672;6.984;2023-02-03T00:21:53;9.10;99.90
57434;DHT22;43277;52.672;6.984;2023-02-03T00:24:19;9.20;99.90
57434;DHT22;43277;52.672;6.984;2023-02-03T00:26:47;9.20;99.90
57434;DHT22;43277;52.672;6.984;2023-02-03T00:29:13;9.20;99.90
57434;DHT22;43277;52.672;6.984;2023-02-03T00:31:39;9.10;99.90
57434;DHT22;43277;52.672;6.984;2023-02-03T00:34:04;9.10;99.90
57434;DHT22;43277;52.672;6.984;2023-02-03T00:36:30;9.20;99.90
57434;DHT22;43277;52.672;6.984;2023-02-03T00:38:56;9.20;99.90
57434;DHT22;43277;52.672;6.984;2023-02-03T00:41:22;9.30;99.90
57434;DHT22;43277;52.672;6.984;2023-02-03T00:43:48;9.30;99.90
57434;DHT22;43277;52.672;6.984;2023-02-03T00:46:14;9.30;99.90
57434;DHT22;43277;52.672;6.984;2023-02-03T00:48:40;9.10;99.90
57434;DHT22;43277;52.672;6.984;2023-02-03T00:51:05;9.10;99.90
57434;DHT22;43277;52.672;6.984;2023-02-03T00:53:31;9.20;99.90
57434;DHT22;43277;52.672;6.984;2023-02-03T00:55:57;9.20;99.90
57434;DHT22;43277;52.672;6.984;2023-02-03T00:58:23;9.10;99.90
57434;DHT22;43277;52.672;6.984;2023-02-03T01:00:48;9.20;99.90
57434;DHT22;43277;52.672;6.984;2023-02-03T01:03:15;9.20;99.90
57434;DHT22;43277;52.672;6.984;2023-02-03T01:05:41;9.20;99.90
57434;DHT22;43277;52.672;6.984;2023-02-03T01:08:06;9.30;99.90
57434;DHT22;43277;52.672;6.984;2023-02-03T01:10:32;9.30;99.90
57434;DHT22;43277;52.672;6.984;2023-02-03T01:12:58;9.30;99.90
57434;DHT22;43277;52.672;6.984;2023-02-03T01:15:23;9.20;99.90
57434;DHT22;43277;52.672;6.984;2023-02-03T01:17:49;9.40;99.90
57434;DHT22;43277;52.672;6.984;2023-02-03T01:20:15;9.40;99.90
57434;DHT22;43277;52.672;6.984;2023-02-03T01:22:41;9.30;99.90
57434;DHT22;43277;52.672;6.984;2023-02-03T01:25:07;9.40;99.90
57434;DHT22;43277;52.672;6.984;2023-02-03T01:27:33;9.40;99.90
57434;DHT22;43277;52.672;6.984;2023-02-03T01:29:59;9.40;99.90
57434;DHT22;43277;52.672;6.984;2023-02-03T01:32:25;9.40;99.90
57434;DHT22;43277;52.672;6.984;2023-02-03T01:34:51;9.30;99.90
57434;DHT22;43277;52.672;6.984;2023-02-03T01:37:16;9.20;99.90
57434;DHT22;43277;52.672;6.984;2023-02-03T01:39:43;9.20;99.90
57434;DHT22;43277;52.672;6.984;2023-02-03T01:42:12;9.10;99.90
57434;DHT22;43277;52.672;6.984;2023-02-03T01:44:48;9.20;99.90
57434;DHT22;43277;52.672;6.984;2023-02-03T01:52:40;9.10;99.90
57434;DHT22;43277;52.672;6.984;2023-02-03T01:55:09;9.40;99.90
57434;DHT22;43277;52.672;6.984;2023-02-03T01:57:41;9.30;99.90
57434;DHT22;43277;52.672;6.984;2023-02-03T02:00:10;9.20;99.90
57434;DHT22;43277;52.672;6.984;2023-02-03T02:02:36;9.20;99.90
57434;DHT22;43277;52.672;6.984;2023-02-03T02:05:12;9.10;99.90
57434;DHT22;43277;52.672;6.984;2023-02-03T02:07:39;9.10;99.90
57434;DHT22;43277;52.672;6.984;2023-02-03T02:10:06;9.10;99.90
57434;DHT22;43277;52.672;6.984;2023-02-03T02:12:32;9.10;99.90
57434;DHT22;43277;52.672;6.984;2023-02-03T02:14:57;9.20;99.90
57434;DHT22;43277;52.672;6.984;2023-02-03T02:17:55;9.00;99.90
57434;DHT22;43277;52.672;6.984;2023-02-03T02:45:49;9.10;99.90
57434;DHT22;43277;52.672;6.984;2023-02-03T02:48:34;9.20;99.90
57434;DHT22;43277;52.672;6.984;2023-02-03T02:51:02;9.20;99.90
57434;DHT22;43277;52.672;6.984;2023-02-03T02:53:34;9.10;99.90
57434;DHT22;43277;52.672;6.984;2023-02-03T02:56:05;9.10;99.90
57434;DHT22;43277;52.672;6.984;2023-02-03T02:58:34;9.10;99.90
57434;DHT22;43277;52.672;6.984;2023-02-03T03:01:02;9.30;99.90
57434;DHT22;43277;52.672;6.984;2023-02-03T03:03:28;9.30;99.90
57434;DHT22;43277;52.672;6.984;2023-02-03T03:05:58;9.30;99.90
57434;DHT22;43277;52.672;6.984;2023-02-03T03:11:07;9.30;99.90
57434;DHT22;43277;52.672;6.984;2023-02-03T03:13:37;9.20;99.90
57434;DHT22;43277;52.672;6.984;2023-02-03T03:16:04;9.20;99.90
57434;DHT22;43277;52.672;6.984;2023-02-03T03:18:41;9.20;99.90
57434;DHT22;43277;52.672;6.984;2023-02-03T03:21:10;9.30;99.90
57434;DHT22;43277;52.672;6.984;2023-02-03T03:23:39;9.30;99.90
57434;DHT22;43277;52.672;6.984;2023-02-03T03:26:39;9.20;99.90
57434;DHT22;43277;52.672;6.984;2023-02-03T03:29:23;9.30;99.90
57434;DHT22;43277;52.672;6.984;2023-02-03T03:31:51;9.40;99.90
57434;DHT22;43277;52.672;6.984;2023-02-03T03:34:17;9.30;99.90
57434;DHT22;43277;52.672;6.984;2023-02-03T03:42:19;9.30;99.90
57434;DHT22;43277;52.672;6.984;2023-02-03T03:44:53;9.30;99.90
57434;DHT22;43277;52.672;6.984;2023-02-03T03:47:30;9.20;99.90
57434;DHT22;43277;52.672;6.984;2023-02-03T03:50:00;9.30;99.90
57434;DHT22;43277;52.672;6.984;2023-02-03T03:52:30;9.30;99.90
57434;DHT22;43277;52.672;6.984;2023-02-03T03:54:58;9.20;99.90
57434;DHT22;43277;52.672;6.984;2023-02-03T03:57:42;9.30;99.90
57434;DHT22;43277;52.672;6.984;2023-02-03T04:00:11;9.40;99.90
57434;DHT22;43277;52.672;6.984;2023-02-03T04:02:39;9.40;99.90
57434;DHT22;43277;52.672;6.984;2023-02-03T04:05:07;9.40;99.90
57434;DHT22;43277;52.672;6.984;2023-02-03T04:07:43;9.50;99.90
57434;DHT22;43277;52.672;6.984;2023-02-03T04:10:24;9.60;99.90
57434;DHT22;43277;52.672;6.984;2023-02-03T04:12:50;9.60;99.90
57434;DHT22;43277;52.672;6.984;2023-02-03T04:15:16;9.50;99.90
57434;DHT22;43277;52.672;6.984;2023-02-03T04:17:42;9.50;99.90
57434;DHT22;43277;52.672;6.984;2023-02-03T04:20:08;9.50;99.90
57434;DHT22;43277;52.672;6.984;2023-02-03T04:22:33;9.50;99.90
57434;DHT22;43277;52.672;6.984;2023-02-03T04:24:59;9.60;99.90
57434;DHT22;43277;52.672;6.984;2023-02-03T04:27:26;9.50;99.90
57434;DHT22;43277;52.672;6.984;2023-02-03T04:29:52;9.50;99.90
57434;DHT22;43277;52.672;6.984;2023-02-03T04:32:18;9.60;99.90
57434;DHT22;43277;52.672;6.984;2023-02-03T04:34:44;9.60;99.90
57434;DHT22;43277;52.672;6.984;2023-02-03T04:37:10;9.70;99.90
57434;DHT22;43277;52.672;6.984;2023-02-03T04:39:36;9.70;99.90
57434;DHT22;43277;52.672;6.984;2023-02-03T04:42:01;9.60;99.90
57434;DHT22;43277;52.672;6.984;2023-02-03T04:44:27;9.60;99.90
57434;DHT22;43277;52.672;6.984;2023-02-03T04:46:52;9.60;99.90
57434;DHT22;43277;52.672;6.984;2023-02-03T04:49:18;9.70;99.90
57434;DHT22;43277;52.672;6.984;2023-02-03T04:51:44;9.60;99.90
57434;DHT22;43277;52.672;6.984;2023-02-03T04:54:10;9.60;99.90
57434;DHT22;43277;52.672;6.984;2023-02-03T04:56:36;9.60;99.90
57434;DHT22;43277;52.672;6.984;2023-02-03T04:59:02;9.60;99.90
57434;DHT22;43277;52.672;6.984;2023-02-03T05:01:28;9.60;99.90
57434;DHT22;43277;52.672;6.984;2023-02-03T05:03:53;9.70;99.90
57434;DHT22;43277;52.672;6.984;2023-02-03T05:06:27;9.60;99.90
57434;DHT22;43277;52.672;6.984;2023-02-03T05:08:57;9.50;99.90
57434;DHT22;43277;52.672;6.984;2023-02-03T05:11:23;9.50;99.90
57434;DHT22;43277;52.672;6.984;2023-02-03T05:13:49;9.50;99.90
57434;DHT22;43277;52.672;6.984;2023-02-03T05:16:15;9.50;99.90
57434;DHT22;43277;52.672;6.984;2023-02-03T05:18:40;9.50;99.90
57434;DHT22;43277;52.672;6.984;2023-02-03T05:21:06;9.50;99.90
57434;DHT22;43277;52.672;6.984;2023-02-03T05:23:32;9.50;99.90
57434;DHT22;43277;52.672;6.984;2023-02-03T05:25:58;9.50;99.90
57434;DHT22;43277;52.672;6.984;2023-02-03T05:28:23;9.50;99.90
57434;DHT22;43277;52.672;6.984;2023-02-03T05:30:49;9.50;99.90
57434;DHT22;43277;52.672;6.984;2023-02-03T05:33:15;9.60;99.90
57434;DHT22;43277;52.672;6.984;2023-02-03T05:35:41;9.60;99.90
57434;DHT22;43277;52.672;6.984;2023-02-03T05:38:06;9.50;99.90
57434;DHT22;43277;52.672;6.984;2023-02-03T05:40:32;9.60;99.90
57434;DHT22;43277;52.672;6.984;2023-02-03T05:43:16;9.50;99.90
57434;DHT22;43277;52.672;6.984;2023-02-03T05:45:42;9.50;99.90
57434;DHT22;43277;52.672;6.984;2023-02-03T05:48:08;9.50;99.90
57434;DHT22;43277;52.672;6.984;2023-02-03T05:50:34;9.40;99.90
57434;DHT22;43277;52.672;6.984;2023-02-03T05:53:01;9.40;99.90
57434;DHT22;43277;52.672;6.984;2023-02-03T05:55:28;9.40;99.90
57434;DHT22;43277;52.672;6.984;2023-02-03T05:57:53;9.50;99.90
57434;DHT22;43277;52.672;6.984;2023-02-03T06:00:20;9.50;99.90
57434;DHT22;43277;52.672;6.984;2023-02-03T06:02:54;9.50;99.90
57434;DHT22;43277;52.672;6.984;2023-02-03T06:05:21;9.50;99.90
57434;DHT22;43277;52.672;6.984;2023-02-03T06:07:47;9.50;99.90
57434;DHT22;43277;52.672;6.984;2023-02-03T06:10:13;9.50;99.90
57434;DHT22;43277;52.672;6.984;2023-02-03T06:12:38;9.50;99.90
57434;DHT22;43277;52.672;6.984;2023-02-03T06:15:04;9.50;99.90
57434;DHT22;43277;52.672;6.984;2023-02-03T06:17:30;9.50;99.90
57434;DHT22;43277;52.672;6.984;2023-02-03T06:19:56;9.50;99.90
57434;DHT22;43277;52.672;6.984;2023-02-03T06:22:21;9.50;99.90
57434;DHT22;43277;52.672;6.984;2023-02-03T06:24:47;9.30;99.90
57434;DHT22;43277;52.672;6.984;2023-02-03T06:27:16;9.50;99.90
57434;DHT22;43277;52.672;6.984;2023-02-03T06:29:41;9.40;99.90
57434;DHT22;43277;52.672;6.984;2023-02-03T06:32:08;9.30;99.90
57434;DHT22;43277;52.672;6.984;2023-02-03T06:34:34;9.40;99.90
57434;DHT22;43277;52.672;6.984;2023-02-03T06:37:00;9.40;99.90
57434;DHT22;43277;52.672;6.984;2023-02-03T06:39:25;9.40;99.90
57434;DHT22;43277;52.672;6.984;2023-02-03T06:41:51;9.40;99.90
57434;DHT22;43277;52.672;6.984;2023-02-03T06:44:17;9.40;99.90
57434;DHT22;43277;52.672;6.984;2023-02-03T06:46:43;9.50;99.90
57434;DHT22;43277;52.672;6.984;2023-02-03T06:49:08;9.40;99.90
57434;DHT22;43277;52.672;6.984;2023-02-03T06:51:34;9.40;99.90
57434;DHT22;43277;52.672;6.984;2023-02-03T06:54:00;9.30;99.90
57434;DHT22;43277;52.672;6.984;2023-02-03T06:56:28;9.30;99.90
57434;DHT22;43277;52.672;6.984;2023-02-03T06:58:54;9.30;99.90
57434;DHT22;43277;52.672;6.984;2023-02-03T07:01:20;9.30;99.90
57434;DHT22;43277;52.672;6.984;2023-02-03T07:03:46;9.30;99.90
57434;DHT22;43277;52.672;6.984;2023-02-03T07:06:12;9.30;99.90
57434;DHT22;43277;52.672;6.984;2023-02-03T07:08:38;9.30;99.90
57434;DHT22;43277;52.672;6.984;2023-02-03T07:11:04;9.30;99.90
57434;DHT22;43277;52.672;6.984;2023-02-03T07:13:30;9.30;99.90
57434;DHT22;43277;52.672;6.984;2023-02-03T07:15:55;9.30;99.90
57434;DHT22;43277;52.672;6.984;2023-02-03T07:18:21;9.30;99.90
57434;DHT22;43277;52.672;6.984;2023-02-03T07:20:51;9.30;99.90
57434;DHT22;43277;52.672;6.984;2023-02-03T07:23:16;9.40;99.90
57434;DHT22;43277;52.672;6.984;2023-02-03T07:25:42;9.40;99.90
57434;DHT22;43277;52.672;6.984;2023-02-03T07:28:08;9.30;99.90
57434;DHT22;43277;52.672;6.984;2023-02-03T07:30:33;9.30;99.90
57434;DHT22;43277;52.672;6.984;2023-02-03T07:32:59;9.30;99.90
57434;DHT22;43277;52.672;6.984;2023-02-03T07:35:24;9.40;99.90
57434;DHT22;43277;52.672;6.984;2023-02-03T07:37:51;9.30;99.90
57434;DHT22;43277;52.672;6.984;2023-02-03T07:40:17;9.30;99.90
57434;DHT22;43277;52.672;6.984;2023-02-03T07:42:44;9.40;99.90
57434;DHT22;43277;52.672;6.984;2023-02-03T07:45:11;9.50;99.90
57434;DHT22;43277;52.672;6.984;2023-02-03T07:47:37;9.50;99.90
57434;DHT22;43277;52.672;6.984;2023-02-03T07:50:04;9.40;99.90
57434;DHT22;43277;52.672;6.984;2023-02-03T07:52:29;9.50;99.90
57434;DHT22;43277;52.672;6.984;2023-02-03T07:54:55;9.40;99.90
57434;DHT22;43277;52.672;6.984;2023-02-03T07:57:20;9.40;99.90
57434;DHT22;43277;52.672;6.984;2023-02-03T07:59:46;9.40;99.90
57434;DHT22;43277;52.672;6.984;2023-02-03T08:02:12;9.50;99.90
57434;DHT22;43277;52.672;6.984;2023-02-03T08:04:37;9.50;99.90
57434;DHT22;43277;52.672;6.984;2023-02-03T08:07:03;9.50;99.90
57434;DHT22;43277;52.672;6.984;2023-02-03T08:09:29;9.50;99.90
57434;DHT22;43277;52.672;6.984;2023-02-03T08:11:54;9.50;99.90
57434;DHT22;43277;52.672;6.984;2023-02-03T08:14:20;9.60;99.90
57434;DHT22;43277;52.672;6.984;2023-02-03T08:16:45;9.50;99.90
57434;DHT22;43277;52.672;6.984;2023-02-03T08:19:11;9.60;99.90
57434;DHT22;43277;52.672;6.984;2023-02-03T08:21:37;9.60;99.90
57434;DHT22;43277;52.672;6.984;2023-02-03T08:24:03;9.60;99.90
57434;DHT22;43277;52.672;6.984;2023-02-03T08:26:29;9.70;99.90
57434;DHT22;43277;52.672;6.984;2023-02-03T08:28:54;9.70;99.90
57434;DHT22;43277;52.672;6.984;2023-02-03T08:31:20;9.70;99.90
57434;DHT22;43277;52.672;6.984;2023-02-03T08:33:46;9.70;99.90
57434;DHT22;43277;52.672;6.984;2023-02-03T08:36:11;9.70;99.90
57434;DHT22;43277;52.672;6.984;2023-02-03T08:38:38;9.80;99.90
57434;DHT22;43277;52.672;6.984;2023-02-03T08:41:12;9.80;99.90
57434;DHT22;43277;52.672;6.984;2023-02-03T08:43:38;9.70;99.90
57434;DHT22;43277;52.672;6.984;2023-02-03T08:46:06;9.70;99.90
57434;DHT22;43277;52.672;6.984;2023-02-03T08:48:32;9.70;99.90
57434;DHT22;43277;52.672;6.984;2023-02-03T08:50:57;9.70;99.90
57434;DHT22;43277;52.672;6.984;2023-02-03T08:53:23;9.70;99.90
57434;DHT22;43277;52.672;6.984;2023-02-03T08:55:49;9.70;99.90
57434;DHT22;43277;52.672;6.984;2023-02-03T08:58:14;9.70;99.90
57434;DHT22;43277;52.672;6.984;2023-02-03T09:00:40;9.70;99.90
57434;DHT22;43277;52.672;6.984;2023-02-03T09:03:06;9.70;99.90
57434;DHT22;43277;52.672;6.984;2023-02-03T09:05:32;9.70;99.90
57434;DHT22;43277;52.672;6.984;2023-02-03T09:07:58;9.80;99.90
57434;DHT22;43277;52.672;6.984;2023-02-03T09:10:24;9.80;99.90
57434;DHT22;43277;52.672;6.984;2023-02-03T09:12:49;9.80;99.90
57434;DHT22;43277;52.672;6.984;2023-02-03T09:15:15;9.80;99.90
57434;DHT22;43277;52.672;6.984;2023-02-03T09:17:41;9.90;99.90
57434;DHT22;43277;52.672;6.984;2023-02-03T09:20:07;9.80;99.90
57434;DHT22;43277;52.672;6.984;2023-02-03T09:22:33;9.80;99.90
57434;DHT22;43277;52.672;6.984;2023-02-03T09:24:59;9.80;99.90
57434;DHT22;43277;52.672;6.984;2023-02-03T09:27:24;9.90;99.90
57434;DHT22;43277;52.672;6.984;2023-02-03T09:29:50;9.90;99.90
57434;DHT22;43277;52.672;6.984;2023-02-03T09:32:15;9.80;99.90
57434;DHT22;43277;52.672;6.984;2023-02-03T09:34:41;9.80;99.90
57434;DHT22;43277;52.672;6.984;2023-02-03T09:37:07;9.90;99.90
57434;DHT22;43277;52.672;6.984;2023-02-03T09:39:33;9.90;99.90
57434;DHT22;43277;52.672;6.984;2023-02-03T09:47:31;9.70;99.90
57434;DHT22;43277;52.672;6.984;2023-02-03T09:50:04;9.70;99.90
57434;DHT22;43277;52.672;6.984;2023-02-03T09:52:36;9.70;99.90
57434;DHT22;43277;52.672;6.984;2023-02-03T09:58:01;9.70;99.90
57434;DHT22;43277;52.672;6.984;2023-02-03T10:03:31;9.70;99.90
57434;DHT22;43277;52.672;6.984;2023-02-03T10:20:16;9.80;99.90
57434;DHT22;43277;52.672;6.984;2023-02-03T10:22:53;9.80;99.90
57434;DHT22;43277;52.672;6.984;2023-02-03T10:25:42;9.90;99.90
57434;DHT22;43277;52.672;6.984;2023-02-03T10:28:16;9.90;99.90
57434;DHT22;43277;52.672;6.984;2023-02-03T10:30:49;10.00;99.90
57434;DHT22;43277;52.672;6.984;2023-02-03T10:33:17;10.10;99.90
57434;DHT22;43277;52.672;6.984;2023-02-03T10:35:53;10.10;99.90
57434;DHT22;43277;52.672;6.984;2023-02-03T10:41:09;10.10;99.90
57434;DHT22;43277;52.672;6.984;2023-02-03T10:43:35;10.20;99.90
57434;DHT22;43277;52.672;6.984;2023-02-03T10:46:19;10.20;99.90
57434;DHT22;43277;52.672;6.984;2023-02-03T10:48:45;10.20;99.90
57434;DHT22;43277;52.672;6.984;2023-02-03T10:51:25;10.20;99.90
57434;DHT22;43277;52.672;6.984;2023-02-03T10:53:52;10.20;99.90
57434;DHT22;43277;52.672;6.984;2023-02-03T10:56:34;10.30;99.90
57434;DHT22;43277;52.672;6.984;2023-02-03T10:59:00;10.30;99.90
57434;DHT22;43277;52.672;6.984;2023-02-03T11:01:43;10.30;99.90
57434;DHT22;43277;52.672;6.984;2023-02-03T11:06:59;10.40;99.90
57434;DHT22;43277;52.672;6.984;2023-02-03T11:14:49;10.40;99.90
57434;DHT22;43277;52.672;6.984;2023-02-03T11:19:49;10.30;99.90
57434;DHT22;43277;52.672;6.984;2023-02-03T11:22:35;10.40;99.90
57434;DHT22;43277;52.672;6.984;2023-02-03T11:25:03;10.40;99.90
57434;DHT22;43277;52.672;6.984;2023-02-03T11:27:31;10.40;99.90
57434;DHT22;43277;52.672;6.984;2023-02-03T11:32:39;10.40;99.90
57434;DHT22;43277;52.672;6.984;2023-02-03T11:35:17;10.30;99.90
57434;DHT22;43277;52.672;6.984;2023-02-03T11:37:50;10.20;99.90
57434;DHT22;43277;52.672;6.984;2023-02-03T11:43:02;10.30;99.90
57434;DHT22;43277;52.672;6.984;2023-02-03T11:45:52;10.20;99.90
57434;DHT22;43277;52.672;6.984;2023-02-03T11:48:34;10.30;99.90
57434;DHT22;43277;52.672;6.984;2023-02-03T11:59:01;10.20;99.90
57434;DHT22;43277;52.672;6.984;2023-02-03T12:04:46;10.20;99.90
57434;DHT22;43277;52.672;6.984;2023-02-03T12:10:10;10.10;99.90
57434;DHT22;43277;52.672;6.984;2023-02-03T12:23:56;10.10;99.90
57434;DHT22;43277;52.672;6.984;2023-02-03T12:26:33;10.00;99.90
57434;DHT22;43277;52.672;6.984;2023-02-03T12:29:15;10.10;99.90
57434;DHT22;43277;52.672;6.984;2023-02-03T12:37:15;10.00;99.90
57434;DHT22;43277;52.672;6.984;2023-02-03T12:39:52;10.00;99.90
57434;DHT22;43277;52.672;6.984;2023-02-03T12:42:31;10.10;99.90
57434;DHT22;43277;52.672;6.984;2023-02-03T12:45:15;10.10;99.90
57434;DHT22;43277;52.672;6.984;2023-02-03T12:47:53;10.10;99.90
57434;DHT22;43277;52.672;6.984;2023-02-03T12:50:22;10.00;99.90
57434;DHT22;43277;52.672;6.984;2023-02-03T12:57:51;10.00;99.90
57434;DHT22;43277;52.672;6.984;2023-02-03T13:03:27;9.90;99.90
57434;DHT22;43277;52.672;6.984;2023-02-03T13:06:19;9.90;99.90
57434;DHT22;43277;52.672;6.984;2023-02-03T13:09:20;9.90;99.90
57434;DHT22;43277;52.672;6.984;2023-02-03T13:12:13;9.90;99.90
57434;DHT22;43277;52.672;6.984;2023-02-03T13:17:45;9.90;99.90
57434;DHT22;43277;52.672;6.984;2023-02-03T13:20:24;9.80;99.90
57434;DHT22;43277;52.672;6.984;2023-02-03T13:22:51;9.70;99.90
57434;DHT22;43277;52.672;6.984;2023-02-03T13:37:03;9.70;99.90
57434;DHT22;43277;52.672;6.984;2023-02-03T13:44:43;9.60;99.90
57434;DHT22;43277;52.672;6.984;2023-02-03T13:47:20;9.60;99.90
57434;DHT22;43277;52.672;6.984;2023-02-03T13:50:14;9.60;99.90
57434;DHT22;43277;52.672;6.984;2023-02-03T13:52:53;9.60;99.90
57434;DHT22;43277;52.672;6.984;2023-02-03T13:55:36;9.50;99.90
57434;DHT22;43277;52.672;6.984;2023-02-03T13:58:04;9.60;99.90
57434;DHT22;43277;52.672;6.984;2023-02-03T14:05:59;9.80;99.90
57434;DHT22;43277;52.672;6.984;2023-02-03T14:19:03;9.70;99.90
57434;DHT22;43277;52.672;6.984;2023-02-03T14:21:39;9.70;99.90
57434;DHT22;43277;52.672;6.984;2023-02-03T14:24:10;9.60;99.90
57434;DHT22;43277;52.672;6.984;2023-02-03T14:26:39;9.60;99.90
57434;DHT22;43277;52.672;6.984;2023-02-03T14:29:30;9.50;99.90
57434;DHT22;43277;52.672;6.984;2023-02-03T14:36:56;9.50;99.90
57434;DHT22;43277;52.672;6.984;2023-02-03T14:45:47;9.40;99.90
57434;DHT22;43277;52.672;6.984;2023-02-03T14:54:18;9.30;99.90
57434;DHT22;43277;52.672;6.984;2023-02-03T14:57:08;9.30;99.90
57434;DHT22;43277;52.672;6.984;2023-02-03T15:05:39;9.20;99.90
57434;DHT22;43277;52.672;6.984;2023-02-03T15:11:32;9.10;99.90
57434;DHT22;43277;52.672;6.984;2023-02-03T15:16:58;9.10;99.90
57434;DHT22;43277;52.672;6.984;2023-02-03T15:19:30;9.10;99.90
57434;DHT22;43277;52.672;6.984;2023-02-03T15:21:56;9.10;99.90
57434;DHT22;43277;52.672;6.984;2023-02-03T15:24:22;9.00;99.90
57434;DHT22;43277;52.672;6.984;2023-02-03T15:26:57;9.00;99.90
57434;DHT22;43277;52.672;6.984;2023-02-03T15:29:32;9.00;99.90
57434;DHT22;43277;52.672;6.984;2023-02-03T15:32:10;8.90;99.90
57434;DHT22;43277;52.672;6.984;2023-02-03T15:34:50;8.90;99.90
57434;DHT22;43277;52.672;6.984;2023-02-03T15:37:27;8.90;99.90
57434;DHT22;43277;52.672;6.984;2023-02-03T15:40:12;8.80;99.90
57434;DHT22;43277;52.672;6.984;2023-02-03T15:45:19;8.80;99.90
57434;DHT22;43277;52.672;6.984;2023-02-03T15:47:57;8.70;99.90
57434;DHT22;43277;52.672;6.984;2023-02-03T15:50:29;8.80;99.90
57434;DHT22;43277;52.672;6.984;2023-02-03T15:53:02;8.80;99.90
57434;DHT22;43277;52.672;6.984;2023-02-03T15:55:38;8.70;99.90
57434;DHT22;43277;52.672;6.984;2023-02-03T15:58:47;8.70;99.90
57434;DHT22;43277;52.672;6.984;2023-02-03T16:01:10;8.70;99.90
57434;DHT22;43277;52.672;6.984;2023-02-03T16:03:42;8.60;99.90
57434;DHT22;43277;52.672;6.984;2023-02-03T16:06:30;8.60;99.90
57434;DHT22;43277;52.672;6.984;2023-02-03T16:09:01;8.60;99.90
57434;DHT22;43277;52.672;6.984;2023-02-03T16:11:32;8.60;99.90
57434;DHT22;43277;52.672;6.984;2023-02-03T16:13:59;8.60;99.90
57434;DHT22;43277;52.672;6.984;2023-02-03T16:16:27;8.50;99.90
57434;DHT22;43277;52.672;6.984;2023-02-03T16:18:56;8.40;99.90
57434;DHT22;43277;52.672;6.984;2023-02-03T16:21:30;8.40;99.90
57434;DHT22;43277;52.672;6.984;2023-02-03T16:23:56;8.50;99.90
57434;DHT22;43277;52.672;6.984;2023-02-03T16:26:28;8.40;99.90
57434;DHT22;43277;52.672;6.984;2023-02-03T16:31:48;8.40;99.90
57434;DHT22;43277;52.672;6.984;2023-02-03T16:34:33;8.30;99.90
57434;DHT22;43277;52.672;6.984;2023-02-03T16:37:26;8.30;99.90
57434;DHT22;43277;52.672;6.984;2023-02-03T16:40:16;8.30;99.90
57434;DHT22;43277;52.672;6.984;2023-02-03T16:43:01;8.20;99.90
57434;DHT22;43277;52.672;6.984;2023-02-03T16:45:54;8.20;99.90
57434;DHT22;43277;52.672;6.984;2023-02-03T16:48:38;8.20;99.90
57434;DHT22;43277;52.672;6.984;2023-02-03T16:51:23;8.10;99.90
57434;DHT22;43277;52.672;6.984;2023-02-03T16:53:48;8.20;99.90
57434;DHT22;43277;52.672;6.984;2023-02-03T16:56:14;8.20;99.90
57434;DHT22;43277;52.672;6.984;2023-02-03T16:58:42;8.10;99.90
57434;DHT22;43277;52.672;6.984;2023-02-03T17:01:09;8.20;99.90
57434;DHT22;43277;52.672;6.984;2023-02-03T17:03:36;8.10;99.90
57434;DHT22;43277;52.672;6.984;2023-02-03T17:06:12;8.10;99.90
57434;DHT22;43277;52.672;6.984;2023-02-03T17:08:38;8.10;99.90
57434;DHT22;43277;52.672;6.984;2023-02-03T17:11:16;8.00;99.90
57434;DHT22;43277;52.672;6.984;2023-02-03T17:13:43;8.10;99.90
57434;DHT22;43277;52.672;6.984;2023-02-03T17:16:21;8.20;99.90
57434;DHT22;43277;52.672;6.984;2023-02-03T17:18:48;8.10;99.90
57434;DHT22;43277;52.672;6.984;2023-02-03T17:21:22;8.10;99.90
57434;DHT22;43277;52.672;6.984;2023-02-03T17:23:48;8.00;99.90
57434;DHT22;43277;52.672;6.984;2023-02-03T17:26:14;8.10;99.90
57434;DHT22;43277;52.672;6.984;2023-02-03T17:28:40;8.10;99.90
57434;DHT22;43277;52.672;6.984;2023-02-03T17:31:09;8.00;99.90
57434;DHT22;43277;52.672;6.984;2023-02-03T17:33:36;8.00;99.90
57434;DHT22;43277;52.672;6.984;2023-02-03T17:36:07;8.00;99.90
57434;DHT22;43277;52.672;6.984;2023-02-03T17:38:42;8.00;99.90
57434;DHT22;43277;52.672;6.984;2023-02-03T17:41:13;7.90;99.90
57434;DHT22;43277;52.672;6.984;2023-02-03T17:43:39;8.00;99.90
57434;DHT22;43277;52.672;6.984;2023-02-03T17:46:05;7.90;99.90
57434;DHT22;43277;52.672;6.984;2023-02-03T17:48:31;7.90;99.90
57434;DHT22;43277;52.672;6.984;2023-02-03T17:51:08;7.90;99.90
57434;DHT22;43277;52.672;6.984;2023-02-03T17:53:34;7.90;99.90
57434;DHT22;43277;52.672;6.984;2023-02-03T17:56:10;7.90;99.90
57434;DHT22;43277;52.672;6.984;2023-02-03T17:58:36;7.90;99.90
57434;DHT22;43277;52.672;6.984;2023-02-03T18:01:12;7.90;99.90
57434;DHT22;43277;52.672;6.984;2023-02-03T18:03:44;7.90;99.90
57434;DHT22;43277;52.672;6.984;2023-02-03T18:06:11;7.90;99.90
57434;DHT22;43277;52.672;6.984;2023-02-03T18:08:37;7.90;99.90
57434;DHT22;43277;52.672;6.984;2023-02-03T18:11:03;7.90;99.90
57434;DHT22;43277;52.672;6.984;2023-02-03T18:13:29;7.90;99.90
57434;DHT22;43277;52.672;6.984;2023-02-03T18:15:58;7.90;99.90
57434;DHT22;43277;52.672;6.984;2023-02-03T18:18:23;7.90;99.90
57434;DHT22;43277;52.672;6.984;2023-02-03T18:20:50;7.90;99.90
57434;DHT22;43277;52.672;6.984;2023-02-03T18:23:16;7.90;99.90
57434;DHT22;43277;52.672;6.984;2023-02-03T18:25:45;7.90;99.90
57434;DHT22;43277;52.672;6.984;2023-02-03T18:28:10;7.90;99.90
57434;DHT22;43277;52.672;6.984;2023-02-03T18:30:37;7.90;99.90
57434;DHT22;43277;52.672;6.984;2023-02-03T18:33:03;7.90;99.90
57434;DHT22;43277;52.672;6.984;2023-02-03T18:35:28;7.90;99.90
57434;DHT22;43277;52.672;6.984;2023-02-03T18:37:54;7.90;99.90
57434;DHT22;43277;52.672;6.984;2023-02-03T18:40:20;7.90;99.90
57434;DHT22;43277;52.672;6.984;2023-02-03T18:42:46;7.90;99.90
57434;DHT22;43277;52.672;6.984;2023-02-03T18:45:11;7.90;99.90
57434;DHT22;43277;52.672;6.984;2023-02-03T18:47:37;8.00;99.90
57434;DHT22;43277;52.672;6.984;2023-02-03T18:50:04;7.90;99.90
57434;DHT22;43277;52.672;6.984;2023-02-03T18:52:30;7.90;99.90
57434;DHT22;43277;52.672;6.984;2023-02-03T18:54:55;7.90;99.90
57434;DHT22;43277;52.672;6.984;2023-02-03T18:57:21;7.80;99.90
57434;DHT22;43277;52.672;6.984;2023-02-03T18:59:48;7.80;99.90
57434;DHT22;43277;52.672;6.984;2023-02-03T19:02:13;7.80;99.90
57434;DHT22;43277;52.672;6.984;2023-02-03T19:04:39;7.80;99.90
57434;DHT22;43277;52.672;6.984;2023-02-03T19:07:05;7.80;99.90
57434;DHT22;43277;52.672;6.984;2023-02-03T19:09:30;7.90;99.90
57434;DHT22;43277;52.672;6.984;2023-02-03T19:11:56;7.80;99.90